createdAt,value
2018-12-20T00:00:47.494Z,18.42
2018-12-20T00:03:15.126Z,18.41
2018-12-20T00:05:42.844Z,18.42
2018-12-20T00:08:10.465Z,18.44
2018-12-20T00:10:38.239Z,18.45
2018-12-20T00:13:06.159Z,18.47
2018-12-20T00:15:33.964Z,18.49
2018-12-20T00:18:01.566Z,18.46
2018-12-20T00:20:29.224Z,18.43
2018-12-20T00:22:56.792Z,18.43
2018-12-20T00:25:24.375Z,18.44
2018-12-20T00:27:52.118Z,18.42
2018-12-20T00:30:19.875Z,18.41
2018-12-20T00:32:47.520Z,18.39
2018-12-20T00:35:15.123Z,18.39
2018-12-20T00:37:42.859Z,18.39
2018-12-20T00:40:10.672Z,18.43
2018-12-20T00:42:38.382Z,18.45
2018-12-20T00:45:06.072Z,18.45
2018-12-20T00:47:33.664Z,18.43
2018-12-20T00:50:01.465Z,18.50
2018-12-20T00:52:29.143Z,18.53
2018-12-20T00:54:56.685Z,18.56
2018-12-20T00:57:24.272Z,18.51
2018-12-20T00:59:51.862Z,18.52
2018-12-20T01:02:19.740Z,18.56
2018-12-20T01:04:47.409Z,18.58
2018-12-20T01:07:14.998Z,18.57
2018-12-20T01:09:42.673Z,18.57
2018-12-20T01:12:10.434Z,18.58
2018-12-20T01:14:45.164Z,18.55
2018-12-20T01:17:07.836Z,18.53
2018-12-20T01:19:35.394Z,18.52
2018-12-20T01:22:02.977Z,18.53
2018-12-20T01:24:30.985Z,18.52
2018-12-20T01:26:58.710Z,18.50
2018-12-20T01:29:26.396Z,18.50
2018-12-20T01:31:54.299Z,18.51
2018-12-20T01:34:22.060Z,18.53
2018-12-20T01:36:49.734Z,18.52
2018-12-20T01:39:17.384Z,18.52
2018-12-20T01:41:45.150Z,18.51
2018-12-20T01:44:12.906Z,18.50
2018-12-20T01:46:40.683Z,18.49
2018-12-20T01:49:08.383Z,18.50
2018-12-20T01:51:36.138Z,18.50
2018-12-20T01:54:03.783Z,18.51
2018-12-20T01:56:31.618Z,18.50
2018-12-20T01:58:59.391Z,18.48
2018-12-20T02:01:27.542Z,18.46
2018-12-20T02:03:55.335Z,18.45
2018-12-20T02:06:22.982Z,18.46
2018-12-20T02:08:50.740Z,18.47
2018-12-20T02:11:18.463Z,18.50
2018-12-20T02:13:46.215Z,18.52
2018-12-20T02:16:13.835Z,18.49
2018-12-20T02:18:41.523Z,18.50
2018-12-20T02:21:09.223Z,18.48
2018-12-20T02:23:36.887Z,18.50
2018-12-20T02:26:04.450Z,18.46
2018-12-20T02:28:32.089Z,18.46
2018-12-20T02:30:59.632Z,18.47
2018-12-20T02:33:27.233Z,18.43
2018-12-20T02:35:54.908Z,18.43
2018-12-20T02:38:22.568Z,18.39
2018-12-20T02:40:50.304Z,18.38
2018-12-20T02:43:17.891Z,18.38
2018-12-20T02:45:45.635Z,18.38
2018-12-20T02:48:13.431Z,18.36
2018-12-20T02:50:41.389Z,18.37
2018-12-20T02:53:09.237Z,18.37
2018-12-20T02:55:36.974Z,18.37
2018-12-20T02:58:04.601Z,18.35
2018-12-20T03:00:32.458Z,18.39
2018-12-20T03:03:00.180Z,18.42
2018-12-20T03:05:27.987Z,18.43
2018-12-20T03:07:55.894Z,18.46
2018-12-20T03:10:23.815Z,18.48
2018-12-20T03:12:51.546Z,18.47
2018-12-20T03:15:20.167Z,18.43
2018-12-20T03:17:48.211Z,18.44
2018-12-20T03:20:15.770Z,18.47
2018-12-20T03:22:43.420Z,18.44
2018-12-20T03:25:11.306Z,18.46
2018-12-20T03:27:39.111Z,18.43
2018-12-20T03:30:06.784Z,18.40
2018-12-20T03:32:34.487Z,18.37
2018-12-20T03:35:02.417Z,18.32
2018-12-20T03:37:30.223Z,18.32
2018-12-20T03:39:57.997Z,18.30
2018-12-20T03:42:25.580Z,18.29
2018-12-20T03:44:53.276Z,18.27
2018-12-20T03:47:20.848Z,18.27
2018-12-20T03:49:48.486Z,18.31
2018-12-20T03:52:16.241Z,18.31
2018-12-20T03:54:43.968Z,18.31
2018-12-20T03:57:11.636Z,18.29
2018-12-20T03:59:39.400Z,18.29
2018-12-20T04:02:06.983Z,18.27
2018-12-20T04:04:34.546Z,18.28
2018-12-20T04:07:02.447Z,18.25
2018-12-20T04:09:30.014Z,18.22
2018-12-20T04:11:57.542Z,18.22
2018-12-20T04:14:25.134Z,18.26
2018-12-20T04:16:52.732Z,18.24
2018-12-20T04:19:20.570Z,18.25
2018-12-20T04:21:48.232Z,18.27
2018-12-20T04:24:16.074Z,18.31
2018-12-20T04:26:43.736Z,18.30
2018-12-20T04:29:11.430Z,18.23
2018-12-20T04:31:39.109Z,18.23
2018-12-20T04:34:06.891Z,18.23
2018-12-20T04:36:41.148Z,18.25
2018-12-20T04:39:08.674Z,18.30
2018-12-20T04:41:36.534Z,18.32
2018-12-20T04:44:04.430Z,18.35
2018-12-20T04:46:32.160Z,18.39
2018-12-20T04:49:00.083Z,18.40
2018-12-20T04:51:27.897Z,18.40
2018-12-20T04:53:56.525Z,18.38
2018-12-20T04:56:24.281Z,18.40
2018-12-20T04:58:52.633Z,18.43
2018-12-20T05:01:20.482Z,18.40
2018-12-20T05:03:48.271Z,18.38
2018-12-20T05:06:16.208Z,18.39
2018-12-20T05:08:44.656Z,18.37
2018-12-20T05:11:12.714Z,18.37
2018-12-20T05:13:40.531Z,18.34
2018-12-20T05:16:08.223Z,18.36
2018-12-20T05:18:35.931Z,18.37
2018-12-20T05:21:03.518Z,18.43
2018-12-20T05:23:31.088Z,18.43
2018-12-20T05:25:58.755Z,18.44
2018-12-20T05:28:26.334Z,18.47
2018-12-20T05:30:54.165Z,18.44
2018-12-20T05:33:22.563Z,18.43
2018-12-20T05:35:50.601Z,18.42
2018-12-20T05:38:18.244Z,18.39
2018-12-20T05:40:46.039Z,18.41
2018-12-20T05:43:13.973Z,18.40
2018-12-20T05:45:41.649Z,18.41
2018-12-20T05:48:09.340Z,18.41
2018-12-20T05:50:37.028Z,18.42
2018-12-20T05:53:04.595Z,18.46
2018-12-20T05:55:32.185Z,18.47
2018-12-20T05:57:59.966Z,18.46
2018-12-20T06:00:27.808Z,18.46
2018-12-20T06:02:55.587Z,18.45
2018-12-20T06:05:23.397Z,18.44
2018-12-20T06:07:51.046Z,18.42
2018-12-20T06:10:18.709Z,18.41
2018-12-20T06:12:46.515Z,18.41
2018-12-20T06:15:14.106Z,18.40
2018-12-20T06:17:41.846Z,18.41
2018-12-20T06:20:09.389Z,18.38
2018-12-20T06:22:37.112Z,18.36
2018-12-20T06:25:05.004Z,18.39
2018-12-20T06:27:32.580Z,18.36
2018-12-20T06:30:00.178Z,18.34
2018-12-20T06:32:27.707Z,18.40
2018-12-20T06:34:55.302Z,18.39
2018-12-20T06:37:23.746Z,18.35
2018-12-20T06:39:51.329Z,18.35
2018-12-20T06:42:18.906Z,18.34
2018-12-20T06:44:46.504Z,18.30
2018-12-20T06:47:14.060Z,18.26
2018-12-20T06:49:41.667Z,18.25
2018-12-20T06:52:09.381Z,18.30
2018-12-20T06:54:36.961Z,18.35
2018-12-20T06:57:04.607Z,18.35
2018-12-20T06:59:32.604Z,18.30
2018-12-20T07:02:00.622Z,18.31
2018-12-20T07:04:29.811Z,18.37
2018-12-20T07:06:57.471Z,18.47
2018-12-20T07:09:25.129Z,18.55
2018-12-20T07:11:52.679Z,18.60
2018-12-20T07:14:20.366Z,18.64
2018-12-20T07:16:47.964Z,18.63
2018-12-20T07:19:15.561Z,18.59
2018-12-20T07:21:43.088Z,18.59
2018-12-20T07:24:10.691Z,18.54
2018-12-20T07:26:38.241Z,18.51
2018-12-20T07:29:05.919Z,18.51
2018-12-20T07:31:33.505Z,18.50
2018-12-20T07:34:01.079Z,18.49
2018-12-20T07:36:28.662Z,18.46
2018-12-20T07:38:56.294Z,18.47
2018-12-20T07:41:23.863Z,18.44
2018-12-20T07:43:51.455Z,18.42
2018-12-20T07:46:19.176Z,18.42
2018-12-20T07:48:46.853Z,18.42
2018-12-20T07:51:14.491Z,18.42
2018-12-20T07:53:42.053Z,18.44
2018-12-20T07:56:09.662Z,18.42
2018-12-20T07:58:37.217Z,18.43
2018-12-20T08:01:04.877Z,18.42
2018-12-20T08:03:32.489Z,18.41
2018-12-20T08:06:02.499Z,18.41
2018-12-20T08:08:30.232Z,18.43
2018-12-20T08:10:57.834Z,18.46
2018-12-20T08:13:30.519Z,18.47
2018-12-20T08:16:02.224Z,18.50
2018-12-20T08:18:30.726Z,18.47
2018-12-20T08:20:59.790Z,18.49
2018-12-20T08:23:28.244Z,18.48
2018-12-20T08:25:57.625Z,18.48
2018-12-20T08:28:25.988Z,18.51
2018-12-20T08:30:54.379Z,18.54
2018-12-20T08:33:22.106Z,18.55
2018-12-20T08:35:49.714Z,18.54
2018-12-20T08:38:17.494Z,18.53
2018-12-20T08:40:45.063Z,18.53
2018-12-20T08:43:12.709Z,18.50
2018-12-20T08:45:40.360Z,18.53
2018-12-20T08:48:07.978Z,18.52
2018-12-20T08:50:35.680Z,18.51
2018-12-20T08:53:03.268Z,18.50
2018-12-20T08:55:30.875Z,18.49
2018-12-20T08:57:58.916Z,18.53
2018-12-20T09:00:26.547Z,18.51
2018-12-20T09:02:54.118Z,18.53
2018-12-20T09:05:21.704Z,18.54
2018-12-20T09:07:49.310Z,18.56
2018-12-20T09:10:16.931Z,18.54
2018-12-20T09:12:44.544Z,18.52
2018-12-20T09:15:12.181Z,18.54
2018-12-20T09:17:39.917Z,18.55
2018-12-20T09:20:08.155Z,18.54
2018-12-20T09:22:35.799Z,18.56
2018-12-20T09:25:03.411Z,18.57
2018-12-20T09:27:31.001Z,18.58
2018-12-20T09:29:58.627Z,18.58
2018-12-20T09:32:26.166Z,18.57
2018-12-20T09:34:53.748Z,18.60
2018-12-20T09:37:25.517Z,18.63
2018-12-20T09:39:53.167Z,18.66
2018-12-20T09:42:20.811Z,18.65
2018-12-20T09:44:48.442Z,18.67
2018-12-20T09:47:21.634Z,18.67
2018-12-20T09:49:49.396Z,18.67
2018-12-20T09:52:17.159Z,18.68
2018-12-20T09:54:49.506Z,18.69
2018-12-20T09:57:20.248Z,18.68
2018-12-20T09:59:47.903Z,18.72
2018-12-20T10:02:15.581Z,18.70
2018-12-20T10:04:43.212Z,18.71
2018-12-20T10:07:10.868Z,18.72
2018-12-20T10:09:38.529Z,18.73
2018-12-20T10:12:06.199Z,18.72
2018-12-20T10:17:35.640Z,18.72
2018-12-20T10:20:03.366Z,18.71
2018-12-20T10:22:30.989Z,18.68
2018-12-20T10:24:58.575Z,18.67
2018-12-20T10:27:31.384Z,18.66
2018-12-20T10:29:55.899Z,18.66
2018-12-20T10:32:23.481Z,18.67
2018-12-20T10:34:51.117Z,18.68
2018-12-20T10:37:18.711Z,18.71
2018-12-20T10:39:46.362Z,18.73
2018-12-20T10:42:14.228Z,18.74
2018-12-20T10:44:41.875Z,18.75
2018-12-20T10:47:15.047Z,18.78
2018-12-20T10:49:42.874Z,18.77
2018-12-20T10:52:10.460Z,18.73
2018-12-20T10:54:38.112Z,18.76
2018-12-20T10:57:05.693Z,18.78
2018-12-20T10:59:33.341Z,18.79
2018-12-20T11:02:06.464Z,18.80
2018-12-20T11:04:39.716Z,18.79
2018-12-20T11:07:21.241Z,18.82
2018-12-20T11:09:54.918Z,18.81
2018-12-20T11:12:30.836Z,18.82
2018-12-20T11:14:58.451Z,18.82
2018-12-20T11:17:28.139Z,18.81
2018-12-20T11:19:55.710Z,18.81
2018-12-20T11:22:23.487Z,18.80
2018-12-20T11:24:51.074Z,18.80
2018-12-20T11:27:18.913Z,18.83
2018-12-20T11:29:47.843Z,18.84
2018-12-20T11:32:15.525Z,18.87
2018-12-20T11:34:43.120Z,18.91
2018-12-20T11:37:10.760Z,18.91
2018-12-20T11:39:38.411Z,18.91
2018-12-20T11:42:06.103Z,18.89
2018-12-20T11:44:33.886Z,18.90
2018-12-20T11:47:01.549Z,18.91
2018-12-20T11:49:29.272Z,18.90
2018-12-20T11:51:56.925Z,18.93
2018-12-20T11:54:24.550Z,18.95
2018-12-20T11:56:52.374Z,18.96
2018-12-20T11:59:20.159Z,18.98
2018-12-20T12:01:47.756Z,19.00
2018-12-20T12:04:15.425Z,18.98
2018-12-20T12:06:43.089Z,18.97
2018-12-20T12:09:10.811Z,18.98
2018-12-20T12:11:38.418Z,19.01
2018-12-20T12:14:06.219Z,19.06
2018-12-20T12:16:33.799Z,19.08
2018-12-20T12:19:01.422Z,19.06
2018-12-20T12:21:29.138Z,19.07
2018-12-20T12:23:56.714Z,19.08
2018-12-20T12:26:24.325Z,19.08
2018-12-20T12:28:54.475Z,19.04
2018-12-20T12:31:22.106Z,19.03
2018-12-20T12:33:49.914Z,19.04
2018-12-20T12:36:17.631Z,19.00
2018-12-20T12:38:45.858Z,19.03
2018-12-20T12:41:13.489Z,19.03
2018-12-20T12:43:41.268Z,19.04
2018-12-20T12:46:08.948Z,19.04
2018-12-20T12:48:41.055Z,19.04
2018-12-20T12:51:08.774Z,19.09
2018-12-20T12:53:36.559Z,19.08
2018-12-20T12:56:04.158Z,19.06
2018-12-20T12:58:31.755Z,19.06
2018-12-20T13:00:59.437Z,19.07
2018-12-20T13:03:27.089Z,19.06
2018-12-20T13:05:54.745Z,19.05
2018-12-20T13:08:22.413Z,19.01
2018-12-20T13:10:50.037Z,19.01
2018-12-20T13:13:17.601Z,19.02
2018-12-20T13:15:45.173Z,19.02
2018-12-20T13:18:13.759Z,19.03
2018-12-20T13:20:41.858Z,19.03
2018-12-20T13:23:09.539Z,19.03
2018-12-20T13:25:37.169Z,19.02
2018-12-20T13:28:04.776Z,19.02
2018-12-20T13:30:32.380Z,19.06
2018-12-20T13:32:59.987Z,19.07
2018-12-20T13:35:27.609Z,19.08
2018-12-20T13:37:55.207Z,19.07
2018-12-20T13:40:22.847Z,19.05
2018-12-20T13:42:50.371Z,19.05
2018-12-20T13:45:17.931Z,19.03
2018-12-20T13:47:45.644Z,19.02
2018-12-20T13:50:51.048Z,19.03
2018-12-20T13:53:19.287Z,19.02
2018-12-20T13:55:47.225Z,19.01
2018-12-20T13:58:14.869Z,19.02
2018-12-20T14:00:42.511Z,19.03
2018-12-20T14:03:10.249Z,19.06
2018-12-20T14:05:37.796Z,19.02
2018-12-20T14:08:05.480Z,19.00
2018-12-20T14:10:33.081Z,19.00
2018-12-20T14:13:00.633Z,19.01
2018-12-20T14:15:28.371Z,19.00
2018-12-20T14:17:56.804Z,19.00
2018-12-20T14:20:25.266Z,19.00
2018-12-20T14:22:52.945Z,18.98
2018-12-20T14:25:20.605Z,18.99
2018-12-20T14:27:48.345Z,18.99
2018-12-20T14:30:15.921Z,18.97
2018-12-20T14:32:43.495Z,18.94
2018-12-20T14:35:11.158Z,18.95
2018-12-20T14:37:38.802Z,18.97
2018-12-20T14:40:08.283Z,18.98
2018-12-20T14:42:37.747Z,18.97
2018-12-20T14:45:05.968Z,18.95
2018-12-20T14:47:33.883Z,18.95
2018-12-20T14:50:11.973Z,18.93
2018-12-20T14:52:39.530Z,18.92
2018-12-20T14:55:08.569Z,18.92
2018-12-20T14:57:36.123Z,18.93
2018-12-20T15:00:04.485Z,18.93
2018-12-20T15:02:34.729Z,18.92
2018-12-20T15:05:02.343Z,18.92
2018-12-20T15:07:29.927Z,18.92
2018-12-20T15:09:57.735Z,18.90
2018-12-20T15:12:25.282Z,18.89
2018-12-20T15:14:52.880Z,18.89
2018-12-20T15:17:20.573Z,18.89
2018-12-20T15:19:48.172Z,18.88
2018-12-20T15:22:15.743Z,18.84
2018-12-20T15:24:43.286Z,18.87
2018-12-20T15:27:10.894Z,18.88
2018-12-20T15:29:38.460Z,18.89
2018-12-20T15:32:06.057Z,18.88
2018-12-20T15:34:33.703Z,18.87
2018-12-20T15:37:01.324Z,18.86
2018-12-20T15:39:29.052Z,18.83
2018-12-20T15:41:56.611Z,18.82
2018-12-20T15:44:24.180Z,18.82
2018-12-20T15:46:51.902Z,18.81
2018-12-20T15:49:19.492Z,18.81
2018-12-20T15:51:47.066Z,18.78
2018-12-20T15:54:14.683Z,18.79
2018-12-20T15:56:42.293Z,18.81
2018-12-20T15:59:09.890Z,18.83
2018-12-20T16:01:37.499Z,18.83
2018-12-20T16:04:05.125Z,18.82
2018-12-20T16:06:32.773Z,18.83
2018-12-20T16:09:00.361Z,18.83
2018-12-20T16:11:27.970Z,18.83
2018-12-20T16:13:55.722Z,18.82
2018-12-20T16:16:23.323Z,18.84
2018-12-20T16:18:50.916Z,18.85
2018-12-20T16:21:18.498Z,18.84
2018-12-20T16:23:46.111Z,18.84
2018-12-20T16:26:13.758Z,18.83
2018-12-20T16:28:41.410Z,18.84
2018-12-20T16:31:08.954Z,18.83
2018-12-20T16:33:36.785Z,18.83
2018-12-20T16:36:04.391Z,18.84
2018-12-20T16:38:32.391Z,18.84
2018-12-20T16:41:00.155Z,18.81
2018-12-20T16:43:29.688Z,18.83
2018-12-20T16:45:57.266Z,18.81
2018-12-20T16:48:24.865Z,18.79
2018-12-20T16:50:54.281Z,18.78
2018-12-20T16:53:21.876Z,18.79
2018-12-20T16:55:50.388Z,18.79
2018-12-20T16:58:18.121Z,18.77
2018-12-20T17:00:47.692Z,18.75
2018-12-20T17:03:15.404Z,18.74
2018-12-20T17:05:42.988Z,18.77
2018-12-20T17:08:10.677Z,18.76
2018-12-20T17:10:38.339Z,18.76
2018-12-20T17:13:06.029Z,18.75
2018-12-20T17:15:33.661Z,18.77
2018-12-20T17:18:01.271Z,18.76
2018-12-20T17:20:28.836Z,18.74
2018-12-20T17:22:56.460Z,18.76
2018-12-20T17:25:24.045Z,18.77
2018-12-20T17:27:51.674Z,18.78
2018-12-20T17:30:19.367Z,18.78
2018-12-20T17:32:47.015Z,18.78
2018-12-20T17:35:14.683Z,18.78
2018-12-20T17:37:42.283Z,18.80
2018-12-20T17:40:10.930Z,18.79
2018-12-20T17:42:38.599Z,18.78
2018-12-20T17:45:07.318Z,18.80
2018-12-20T17:47:35.035Z,18.79
2018-12-20T17:50:02.738Z,18.77
2018-12-20T17:52:30.336Z,18.77
2018-12-20T17:54:58.086Z,18.76
2018-12-20T17:57:25.671Z,18.77
2018-12-20T17:59:53.267Z,18.77
2018-12-20T18:02:20.945Z,18.79
2018-12-20T18:04:48.549Z,18.82
2018-12-20T18:07:16.234Z,18.88
2018-12-20T18:09:44.264Z,18.92
2018-12-20T18:12:12.002Z,18.89
2018-12-20T18:14:39.710Z,18.92
2018-12-20T18:17:07.383Z,18.87
2018-12-20T18:19:39.051Z,18.88
2018-12-20T18:22:05.076Z,18.91
2018-12-20T18:24:32.701Z,18.92
2018-12-20T18:27:00.263Z,18.91
2018-12-20T18:29:27.894Z,18.93
2018-12-20T18:31:55.498Z,18.93
2018-12-20T18:34:23.183Z,18.94
2018-12-20T18:36:51.431Z,18.95
2018-12-20T18:39:19.037Z,18.93
2018-12-20T18:41:46.675Z,18.93
2018-12-20T18:44:15.108Z,18.94
2018-12-20T18:46:43.816Z,18.92
2018-12-20T18:49:11.364Z,18.92
2018-12-20T18:51:39.015Z,18.90
2018-12-20T18:54:06.651Z,18.90
2018-12-20T18:56:34.279Z,18.91
2018-12-20T18:59:01.884Z,18.93
2018-12-20T19:01:29.519Z,18.95
2018-12-20T19:03:57.274Z,18.95
2018-12-20T19:06:24.873Z,18.95
2018-12-20T19:08:52.480Z,18.95
2018-12-20T19:11:20.104Z,18.95
2018-12-20T19:13:47.761Z,18.94
2018-12-20T19:16:15.371Z,18.93
2018-12-20T19:18:42.957Z,18.91
2018-12-20T19:21:10.689Z,18.89
2018-12-20T19:23:38.426Z,18.93
2018-12-20T19:26:06.150Z,18.90
2018-12-20T19:28:33.720Z,18.89
2018-12-20T19:31:01.329Z,18.87
2018-12-20T19:33:28.946Z,18.87
2018-12-20T19:35:56.567Z,18.87
2018-12-20T19:38:24.176Z,18.87
2018-12-20T19:40:51.782Z,18.84
2018-12-20T19:43:19.400Z,18.81
2018-12-20T19:45:47.077Z,18.81
2018-12-20T19:48:14.689Z,18.81
2018-12-20T19:50:42.303Z,18.84
2018-12-20T19:53:10.059Z,18.84
2018-12-20T19:55:37.648Z,18.85
2018-12-20T19:58:06.127Z,18.85
2018-12-20T20:00:33.827Z,18.84
2018-12-20T20:03:01.421Z,18.85
2018-12-20T20:05:29.194Z,18.85
2018-12-20T20:07:56.848Z,18.84
2018-12-20T20:10:24.520Z,18.85
2018-12-20T20:12:52.168Z,18.84
2018-12-20T20:15:19.792Z,18.88
2018-12-20T20:17:47.356Z,18.87
2018-12-20T20:20:14.988Z,18.87
2018-12-20T20:22:42.661Z,18.88
2018-12-20T20:25:10.280Z,18.90
2018-12-20T20:27:37.857Z,18.94
2018-12-20T20:30:09.084Z,18.93
2018-12-20T20:32:36.678Z,18.96
2018-12-20T20:35:04.775Z,18.96
2018-12-20T20:37:32.453Z,18.98
2018-12-20T20:40:00.031Z,18.97
2018-12-20T20:42:27.614Z,18.97
2018-12-20T20:44:55.227Z,18.95
2018-12-20T20:47:23.201Z,18.93
2018-12-20T20:49:50.821Z,18.95
2018-12-20T20:52:18.586Z,18.96
2018-12-20T20:54:46.285Z,18.95
2018-12-20T20:57:13.961Z,18.94
2018-12-20T20:59:41.545Z,18.94
2018-12-20T21:02:09.145Z,18.91
2018-12-20T21:04:36.814Z,18.91
2018-12-20T21:07:04.448Z,18.91
2018-12-20T21:09:32.109Z,18.95
2018-12-20T21:12:00.213Z,18.93
2018-12-20T21:14:27.858Z,18.93
2018-12-20T21:16:55.479Z,18.93
2018-12-20T21:19:23.117Z,18.95
2018-12-20T21:21:51.085Z,18.92
2018-12-20T21:24:18.736Z,18.88
2018-12-20T21:26:46.343Z,18.87
2018-12-20T21:29:13.985Z,18.89
2018-12-20T21:31:41.645Z,18.90
2018-12-20T21:34:09.295Z,18.88
2018-12-20T21:36:37.140Z,18.89
2018-12-20T21:39:05.614Z,18.89
2018-12-20T21:41:33.232Z,18.89
2018-12-20T21:44:00.880Z,18.88
2018-12-20T21:46:28.437Z,18.88
2018-12-20T21:48:56.278Z,18.88
2018-12-20T21:51:23.880Z,18.90
2018-12-20T21:53:54.973Z,18.89
2018-12-20T21:56:22.069Z,18.87
2018-12-20T21:58:49.663Z,18.86
2018-12-20T22:01:17.585Z,18.88
2018-12-20T22:03:45.298Z,18.87
2018-12-20T22:06:12.999Z,18.84
2018-12-20T22:08:40.601Z,18.85
2018-12-20T22:11:09.264Z,18.87
2018-12-20T22:13:36.870Z,18.86
2018-12-20T22:16:04.521Z,18.86
2018-12-20T22:18:32.113Z,18.84
2018-12-20T22:20:59.699Z,18.85
2018-12-20T22:23:27.390Z,18.84
2018-12-20T22:25:54.994Z,18.82
2018-12-20T22:28:22.565Z,18.85
2018-12-20T22:30:50.216Z,18.84
2018-12-20T22:33:17.809Z,18.83
2018-12-20T22:35:45.395Z,18.84
2018-12-20T22:38:13.135Z,18.86
2018-12-20T22:40:40.753Z,18.86
2018-12-20T22:43:08.355Z,18.82
2018-12-20T22:45:36.015Z,18.82
2018-12-20T22:48:03.646Z,18.85
2018-12-20T22:50:31.226Z,18.82
2018-12-20T22:52:58.896Z,18.80
2018-12-20T22:55:26.494Z,18.82
2018-12-20T22:57:54.070Z,18.84
2018-12-20T23:00:21.791Z,18.81
2018-12-20T23:02:49.365Z,18.80
2018-12-20T23:05:16.994Z,18.80
2018-12-20T23:07:44.621Z,18.78
2018-12-20T23:10:12.171Z,18.80
2018-12-20T23:12:39.904Z,18.80
2018-12-20T23:15:07.496Z,18.76
2018-12-20T23:17:35.087Z,18.78
2018-12-20T23:20:02.738Z,18.76
2018-12-20T23:22:30.330Z,18.75
2018-12-20T23:24:57.925Z,18.74
2018-12-20T23:27:25.533Z,18.75
2018-12-20T23:29:53.174Z,18.75
2018-12-20T23:32:20.848Z,18.76
2018-12-20T23:34:48.460Z,18.79
2018-12-20T23:37:16.167Z,18.80
2018-12-20T23:39:43.787Z,18.84
2018-12-20T23:42:11.418Z,18.84
2018-12-20T23:44:39.168Z,18.82
2018-12-20T23:47:06.755Z,18.81
2018-12-20T23:49:34.301Z,18.84
2018-12-20T23:52:01.995Z,18.85
2018-12-20T23:54:29.571Z,18.83
2018-12-20T23:56:57.947Z,18.84
2018-12-20T23:59:25.704Z,18.80
